sensor_id;sensor_type;location;lat;lon;timestamp;pressure;altitude;pressure_sealevel;temperature;humidity
37486;BME280;23341;50.296;18.960;2023-04-21T00:02:16;50558.00;;;-144.43;88.61
37486;BME280;23341;50.296;18.960;2023-04-21T00:07:20;50562.00;;;-144.43;89.09
37486;BME280;23341;50.296;18.960;2023-04-21T00:12:26;50500.00;;;-144.43;89.17
37486;BME280;23341;50.296;18.960;2023-04-21T00:17:30;50534.00;;;-144.43;90.34
37486;BME280;23341;50.296;18.960;2023-04-21T00:22:35;50556.00;;;-144.43;90.30
37486;BME280;23341;50.296;18.960;2023-04-21T00:27:41;50506.00;;;-144.43;90.60
37486;BME280;23341;50.296;18.960;2023-04-21T00:32:45;50520.00;;;-144.43;90.43
37486;BME280;23341;50.296;18.960;2023-04-21T00:37:50;50526.00;;;-144.43;90.40
37486;BME280;23341;50.296;18.960;2023-04-21T00:42:56;50514.00;;;-144.43;90.12
37486;BME280;23341;50.296;18.960;2023-04-21T00:48:03;50494.00;;;-144.43;90.13
37486;BME280;23341;50.296;18.960;2023-04-21T00:53:08;50496.00;;;-144.43;90.43
37486;BME280;23341;50.296;18.960;2023-04-21T00:58:14;50498.00;;;-144.43;90.68
37486;BME280;23341;50.296;18.960;2023-04-21T01:03:18;50478.03;;;-144.43;90.87
37486;BME280;23341;50.296;18.960;2023-04-21T01:08:22;50490.00;;;-144.43;91.46
37486;BME280;23341;50.296;18.960;2023-04-21T01:13:28;50490.00;;;-144.43;90.39
37486;BME280;23341;50.296;18.960;2023-04-21T01:18:33;50462.03;;;-144.43;89.17
37486;BME280;23341;50.296;18.960;2023-04-21T01:23:42;50480.03;;;-144.43;88.54
37486;BME280;23341;50.296;18.960;2023-04-21T01:28:47;50462.03;;;-144.43;88.40
37486;BME280;23341;50.296;18.960;2023-04-21T01:33:51;50460.03;;;-144.43;88.85
37486;BME280;23341;50.296;18.960;2023-04-21T01:38:57;50440.03;;;-144.43;89.22
37486;BME280;23341;50.296;18.960;2023-04-21T01:44:04;50460.03;;;-144.43;88.29
37486;BME280;23341;50.296;18.960;2023-04-21T01:49:08;50438.03;;;-144.43;88.40
37486;BME280;23341;50.296;18.960;2023-04-21T01:54:14;50440.03;;;-144.43;88.26
37486;BME280;23341;50.296;18.960;2023-04-21T01:59:19;50418.03;;;-144.43;87.69
37486;BME280;23341;50.296;18.960;2023-04-21T02:04:23;50402.06;;;-144.43;86.48
37486;BME280;23341;50.296;18.960;2023-04-21T02:09:29;50406.06;;;-144.43;86.47
37486;BME280;23341;50.296;18.960;2023-04-21T02:14:36;50432.03;;;-144.43;86.53
37486;BME280;23341;50.296;18.960;2023-04-21T02:19:42;50404.06;;;-144.43;86.54
37486;BME280;23341;50.296;18.960;2023-04-21T02:24:47;50386.06;;;-144.43;85.47
37486;BME280;23341;50.296;18.960;2023-04-21T02:29:54;50380.06;;;-144.43;84.49
37486;BME280;23341;50.296;18.960;2023-04-21T02:34:58;50346.06;;;-144.43;83.42
37486;BME280;23341;50.296;18.960;2023-04-21T02:40:05;50334.09;;;-144.43;83.20
37486;BME280;23341;50.296;18.960;2023-04-21T02:45:10;50322.09;;;-144.43;84.06
37486;BME280;23341;50.296;18.960;2023-04-21T02:50:15;50286.09;;;-144.43;83.31
37486;BME280;23341;50.296;18.960;2023-04-21T02:55:20;50298.09;;;-144.43;83.58
37486;BME280;23341;50.296;18.960;2023-04-21T03:00:25;50306.09;;;-144.43;83.29
37486;BME280;23341;50.296;18.960;2023-04-21T03:05:29;50310.09;;;-144.43;83.70
37486;BME280;23341;50.296;18.960;2023-04-21T03:10:37;50280.09;;;-144.43;83.47
37486;BME280;23341;50.296;18.960;2023-04-21T03:15:41;50274.09;;;-144.43;83.08
37486;BME280;23341;50.296;18.960;2023-04-21T03:20:46;50280.09;;;-144.43;84.00
37486;BME280;23341;50.296;18.960;2023-04-21T03:25:52;50278.09;;;-144.43;83.28
37486;BME280;23341;50.296;18.960;2023-04-21T03:30:56;50316.09;;;-144.43;83.25
37486;BME280;23341;50.296;18.960;2023-04-21T03:36:01;50238.13;;;-144.43;83.29
37486;BME280;23341;50.296;18.960;2023-04-21T03:41:07;50290.09;;;-144.43;84.20
37486;BME280;23341;50.296;18.960;2023-04-21T03:46:20;50242.13;;;-144.43;85.28
37486;BME280;23341;50.296;18.960;2023-04-21T03:51:25;50258.13;;;-144.43;86.45
37486;BME280;23341;50.296;18.960;2023-04-21T03:56:31;50296.09;;;-144.43;86.85
37486;BME280;23341;50.296;18.960;2023-04-21T04:01:35;50278.09;;;-144.43;87.34
37486;BME280;23341;50.296;18.960;2023-04-21T04:06:39;50294.09;;;-144.43;87.41
37486;BME280;23341;50.296;18.960;2023-04-21T04:11:45;50326.09;;;-144.43;86.33
37486;BME280;23341;50.296;18.960;2023-04-21T04:16:50;50318.09;;;-144.43;86.70
37486;BME280;23341;50.296;18.960;2023-04-21T04:21:54;50316.09;;;-144.43;86.87
37486;BME280;23341;50.296;18.960;2023-04-21T04:27:00;50328.09;;;-144.43;85.85
37486;BME280;23341;50.296;18.960;2023-04-21T04:32:05;50314.09;;;-144.43;85.73
37486;BME280;23341;50.296;18.960;2023-04-21T04:37:12;50294.09;;;-144.43;84.83
37486;BME280;23341;50.296;18.960;2023-04-21T04:42:18;50356.06;;;-144.43;83.96
37486;BME280;23341;50.296;18.960;2023-04-21T04:47:23;50378.06;;;-144.43;82.58
37486;BME280;23341;50.296;18.960;2023-04-21T04:52:28;50420.03;;;-144.43;81.04
37486;BME280;23341;50.296;18.960;2023-04-21T04:57:33;50466.03;;;-144.43;78.65
37486;BME280;23341;50.296;18.960;2023-04-21T05:02:38;50472.03;;;-144.43;74.47
37486;BME280;23341;50.296;18.960;2023-04-21T05:07:43;50532.00;;;-144.43;71.17
37486;BME280;23341;50.296;18.960;2023-04-21T05:12:49;50593.97;;;-144.43;68.11
37486;BME280;23341;50.296;18.960;2023-04-21T05:17:53;50595.97;;;-144.43;63.20
37486;BME280;23341;50.296;18.960;2023-04-21T05:22:58;50597.97;;;-144.43;60.60
37486;BME280;23341;50.296;18.960;2023-04-21T05:28:04;50607.97;;;-144.43;59.21
37486;BME280;23341;50.296;18.960;2023-04-21T05:33:09;50589.97;;;-144.43;60.65
37486;BME280;23341;50.296;18.960;2023-04-21T05:38:13;50552.00;;;-144.43;59.58
37486;BME280;23341;50.296;18.960;2023-04-21T05:43:19;50691.94;;;-144.43;57.61
37486;BME280;23341;50.296;18.960;2023-04-21T05:48:24;50817.91;;;-144.43;54.12
37486;BME280;23341;50.296;18.960;2023-04-21T05:53:28;51001.84;;;-144.43;50.79
37486;BME280;23341;50.296;18.960;2023-04-21T05:58:34;51315.78;;;-144.43;45.13
37486;BME280;23341;50.296;18.960;2023-04-21T06:03:39;51481.75;;;-144.43;41.76
37486;BME280;23341;50.296;18.960;2023-04-21T06:08:43;51661.72;;;-144.43;39.94
37486;BME280;23341;50.296;18.960;2023-04-21T06:13:49;52085.69;;;-144.43;37.45
37486;BME280;23341;50.296;18.960;2023-04-21T06:18:55;52629.75;;;-144.43;34.71
37486;BME280;23341;50.296;18.960;2023-04-21T06:24:00;52557.72;;;-144.43;32.64
37486;BME280;23341;50.296;18.960;2023-04-21T06:29:09;52779.78;;;-144.43;31.42
37486;BME280;23341;50.296;18.960;2023-04-21T06:34:13;53111.84;;;-144.43;29.97
37486;BME280;23341;50.296;18.960;2023-04-21T06:39:19;53293.91;;;-144.43;28.70
37486;BME280;23341;50.296;18.960;2023-04-21T06:44:24;53762.06;;;-144.43;28.11
37486;BME280;23341;50.296;18.960;2023-04-21T06:49:28;53962.16;;;-144.43;26.54
37486;BME280;23341;50.296;18.960;2023-04-21T06:54:33;53642.03;;;-144.43;26.56
37486;BME280;23341;50.296;18.960;2023-04-21T06:59:38;54278.31;;;-144.43;26.04
37486;BME280;23341;50.296;18.960;2023-04-21T07:04:43;53489.97;;;-144.43;26.12
37486;BME280;23341;50.296;18.960;2023-04-21T07:09:47;53770.06;;;-144.43;25.94
37486;BME280;23341;50.296;18.960;2023-04-21T07:14:53;53948.16;;;-144.43;24.89
37486;BME280;23341;50.296;18.960;2023-04-21T07:19:57;53417.94;;;-144.43;24.86
37486;BME280;23341;50.296;18.960;2023-04-21T07:25:02;53375.91;;;-144.43;25.44
37486;BME280;23341;50.296;18.960;2023-04-21T07:30:10;53912.13;;;-144.43;24.51
37486;BME280;23341;50.296;18.960;2023-04-21T07:35:15;53377.91;;;-144.43;24.59
37486;BME280;23341;50.296;18.960;2023-04-21T07:40:19;53195.88;;;-144.43;24.68
37486;BME280;23341;50.296;18.960;2023-04-21T07:45:25;53531.97;;;-144.43;24.29
37486;BME280;23341;50.296;18.960;2023-04-21T07:50:30;53371.91;;;-144.43;24.45
37486;BME280;23341;50.296;18.960;2023-04-21T07:55:34;53716.03;;;-144.43;24.07
37486;BME280;23341;50.296;18.960;2023-04-21T08:00:41;52905.78;;;-144.43;24.15
37486;BME280;23341;50.296;18.960;2023-04-21T08:12:52;53311.91;;;-144.43;24.30
37486;BME280;23341;50.296;18.960;2023-04-21T08:17:59;53305.91;;;-144.43;25.01
37486;BME280;23341;50.296;18.960;2023-04-21T08:23:07;52781.78;;;-144.43;24.05
37486;BME280;23341;50.296;18.960;2023-04-21T08:28:36;52509.72;;;-144.43;25.09
37486;BME280;23341;50.296;18.960;2023-04-21T08:33:42;52753.75;;;-144.43;25.11
37486;BME280;23341;50.296;18.960;2023-04-21T08:39:08;52481.72;;;-144.43;25.26
37486;BME280;23341;50.296;18.960;2023-04-21T08:44:19;51993.69;;;-144.43;25.67
37486;BME280;23341;50.296;18.960;2023-04-21T08:49:55;51805.72;;;-144.43;25.26
37486;BME280;23341;50.296;18.960;2023-04-21T08:55:01;51619.72;;;-144.43;26.61
37486;BME280;23341;50.296;18.960;2023-04-21T09:00:15;51093.81;;;-144.43;27.78
37486;BME280;23341;50.296;18.960;2023-04-21T09:11:53;51037.84;;;-144.43;28.76
37486;BME280;23341;50.296;18.960;2023-04-21T09:18:16;50917.88;;;-144.43;28.93
37486;BME280;23341;50.296;18.960;2023-04-21T09:23:21;51015.84;;;-144.43;28.83
37486;BME280;23341;50.296;18.960;2023-04-21T09:28:30;50869.88;;;-144.43;28.50
37486;BME280;23341;50.296;18.960;2023-04-21T09:33:35;50809.91;;;-144.43;27.71
37486;BME280;23341;50.296;18.960;2023-04-21T09:39:00;51001.84;;;-144.43;28.98
37486;BME280;23341;50.296;18.960;2023-04-21T09:50:46;50548.00;;;-144.43;28.76
37486;BME280;23341;50.296;18.960;2023-04-21T09:55:55;50514.00;;;-144.43;29.90
37486;BME280;23341;50.296;18.960;2023-04-21T10:01:01;50446.03;;;-144.43;29.96
37486;BME280;23341;50.296;18.960;2023-04-21T10:12:51;50775.91;;;-144.43;28.93
37486;BME280;23341;50.296;18.960;2023-04-21T10:18:10;50807.91;;;-144.43;28.05
37486;BME280;23341;50.296;18.960;2023-04-21T10:29:13;50993.84;;;-144.43;27.60
37486;BME280;23341;50.296;18.960;2023-04-21T10:34:20;50837.91;;;-144.43;27.82
37486;BME280;23341;50.296;18.960;2023-04-21T10:39:27;50983.84;;;-144.43;28.03
37486;BME280;23341;50.296;18.960;2023-04-21T10:51:06;50811.91;;;-144.43;26.78
37486;BME280;23341;50.296;18.960;2023-04-21T10:56:11;50741.94;;;-144.43;27.15
37486;BME280;23341;50.296;18.960;2023-04-21T11:08:28;50911.88;;;-144.43;25.93
37486;BME280;23341;50.296;18.960;2023-04-21T11:13:33;51007.84;;;-144.43;26.47
37486;BME280;23341;50.296;18.960;2023-04-21T11:18:39;51029.84;;;-144.43;26.51
37486;BME280;23341;50.296;18.960;2023-04-21T11:23:52;50929.88;;;-144.43;26.71
37486;BME280;23341;50.296;18.960;2023-04-21T11:34:45;50957.84;;;-144.43;26.72
37486;BME280;23341;50.296;18.960;2023-04-21T11:39:57;51071.81;;;-144.43;27.17
37486;BME280;23341;50.296;18.960;2023-04-21T11:51:37;50641.97;;;-144.43;28.33
37486;BME280;23341;50.296;18.960;2023-04-21T11:56:46;50721.94;;;-144.43;27.97
37486;BME280;23341;50.296;18.960;2023-04-21T12:01:51;50460.03;;;-144.43;28.20
37486;BME280;23341;50.296;18.960;2023-04-21T12:13:28;50725.94;;;-144.43;28.71
37486;BME280;23341;50.296;18.960;2023-04-21T12:18:35;50713.94;;;-144.43;27.90
37486;BME280;23341;50.296;18.960;2023-04-21T12:23:39;50845.88;;;-144.43;28.68
37486;BME280;23341;50.296;18.960;2023-04-21T12:41:33;50833.91;;;-144.43;27.53
37486;BME280;23341;50.296;18.960;2023-04-21T12:46:38;50797.91;;;-144.43;27.35
37486;BME280;23341;50.296;18.960;2023-04-21T12:51:42;50921.88;;;-144.43;28.06
37486;BME280;23341;50.296;18.960;2023-04-21T12:56:48;50797.91;;;-144.43;27.42
37486;BME280;23341;50.296;18.960;2023-04-21T13:01:53;50795.91;;;-144.43;26.54
37486;BME280;23341;50.296;18.960;2023-04-21T13:06:58;50943.84;;;-144.43;27.80
37486;BME280;23341;50.296;18.960;2023-04-21T13:12:04;50997.84;;;-144.43;27.19
37486;BME280;23341;50.296;18.960;2023-04-21T13:17:09;50625.97;;;-144.43;27.97
37486;BME280;23341;50.296;18.960;2023-04-21T13:22:14;50450.03;;;-144.43;28.98
37486;BME280;23341;50.296;18.960;2023-04-21T13:27:20;50925.88;;;-144.43;28.29
37486;BME280;23341;50.296;18.960;2023-04-21T13:32:24;51085.81;;;-144.43;26.64
37486;BME280;23341;50.296;18.960;2023-04-21T13:37:29;51141.81;;;-144.43;25.85
37486;BME280;23341;50.296;18.960;2023-04-21T13:42:35;50981.84;;;-144.43;26.46
37486;BME280;23341;50.296;18.960;2023-04-21T13:47:39;50522.00;;;-144.43;28.04
37486;BME280;23341;50.296;18.960;2023-04-21T13:52:43;51159.81;;;-144.43;26.40
37486;BME280;23341;50.296;18.960;2023-04-21T13:57:50;50863.88;;;-144.43;26.26
37486;BME280;23341;50.296;18.960;2023-04-21T14:02:54;51857.72;;;-144.43;24.92
37486;BME280;23341;50.296;18.960;2023-04-21T14:07:59;52365.72;;;-144.43;23.22
37486;BME280;23341;50.296;18.960;2023-04-21T14:13:05;51715.72;;;-144.43;24.15
37486;BME280;23341;50.296;18.960;2023-04-21T14:18:09;52037.69;;;-144.43;23.54
37486;BME280;23341;50.296;18.960;2023-04-21T14:23:14;51785.72;;;-144.43;23.75
37486;BME280;23341;50.296;18.960;2023-04-21T14:28:20;51961.69;;;-144.43;23.65
37486;BME280;23341;50.296;18.960;2023-04-21T14:33:24;51371.75;;;-144.43;24.47
37486;BME280;23341;50.296;18.960;2023-04-21T14:38:28;51887.72;;;-144.43;23.96
37486;BME280;23341;50.296;18.960;2023-04-21T14:43:34;52253.72;;;-144.43;23.02
37486;BME280;23341;50.296;18.960;2023-04-21T14:48:38;51775.72;;;-144.43;23.70
37486;BME280;23341;50.296;18.960;2023-04-21T14:53:44;51605.72;;;-144.43;24.55
37486;BME280;23341;50.296;18.960;2023-04-21T14:58:50;50765.91;;;-144.43;26.44
37486;BME280;23341;50.296;18.960;2023-04-21T15:03:54;50719.94;;;-144.43;27.65
37486;BME280;23341;50.296;18.960;2023-04-21T15:09:02;50873.88;;;-144.43;26.19
37486;BME280;23341;50.296;18.960;2023-04-21T15:14:08;51031.84;;;-144.43;26.17
37486;BME280;23341;50.296;18.960;2023-04-21T15:19:12;50953.84;;;-144.43;26.42
37486;BME280;23341;50.296;18.960;2023-04-21T15:24:17;50853.88;;;-144.43;27.04
37486;BME280;23341;50.296;18.960;2023-04-21T15:29:23;50651.94;;;-144.43;27.94
37486;BME280;23341;50.296;18.960;2023-04-21T15:34:27;50801.91;;;-144.43;27.70
37486;BME280;23341;50.296;18.960;2023-04-21T15:39:32;50959.84;;;-144.43;26.72
37486;BME280;23341;50.296;18.960;2023-04-21T15:44:38;50565.97;;;-144.43;27.81
37486;BME280;23341;50.296;18.960;2023-04-21T15:49:42;50364.06;;;-144.43;28.82
37486;BME280;23341;50.296;18.960;2023-04-21T15:54:48;50296.09;;;-144.43;29.40
37486;BME280;23341;50.296;18.960;2023-04-21T15:59:55;50214.13;;;-144.43;30.69
37486;BME280;23341;50.296;18.960;2023-04-21T16:04:59;50204.13;;;-144.43;30.81
37486;BME280;23341;50.296;18.960;2023-04-21T16:10:05;50150.16;;;-144.43;31.14
37486;BME280;23341;50.296;18.960;2023-04-21T16:15:12;50086.19;;;-144.43;30.71
37486;BME280;23341;50.296;18.960;2023-04-21T16:20:26;50080.19;;;-144.43;31.27
37486;BME280;23341;50.296;18.960;2023-04-21T16:25:31;50086.19;;;-144.43;31.66
37486;BME280;23341;50.296;18.960;2023-04-21T16:30:37;50046.22;;;-144.43;31.11
37486;BME280;23341;50.296;18.960;2023-04-21T16:35:45;50050.22;;;-144.43;32.15
37486;BME280;23341;50.296;18.960;2023-04-21T16:40:50;50070.19;;;-144.43;32.56
37486;BME280;23341;50.296;18.960;2023-04-21T16:45:56;50058.22;;;-144.43;31.89
37486;BME280;23341;50.296;18.960;2023-04-21T16:51:00;49990.25;;;-144.43;32.78
37486;BME280;23341;50.296;18.960;2023-04-21T16:56:05;49978.25;;;-144.43;32.44
37486;BME280;23341;50.296;18.960;2023-04-21T17:01:11;49962.25;;;-144.43;33.24
37486;BME280;23341;50.296;18.960;2023-04-21T17:06:16;49918.28;;;-144.43;32.81
37486;BME280;23341;50.296;18.960;2023-04-21T17:11:23;49912.28;;;-144.43;33.54
37486;BME280;23341;50.296;18.960;2023-04-21T17:16:29;49894.28;;;-144.43;33.79
37486;BME280;23341;50.296;18.960;2023-04-21T17:21:33;49860.31;;;-144.43;33.84
37486;BME280;23341;50.296;18.960;2023-04-21T17:26:38;49848.31;;;-144.43;34.18
37486;BME280;23341;50.296;18.960;2023-04-21T17:31:44;49858.31;;;-144.43;33.94
37486;BME280;23341;50.296;18.960;2023-04-21T17:36:48;49788.34;;;-144.43;34.10
37486;BME280;23341;50.296;18.960;2023-04-21T17:41:53;49802.34;;;-144.43;34.79
37486;BME280;23341;50.296;18.960;2023-04-21T17:46:58;49780.34;;;-144.43;35.03
37486;BME280;23341;50.296;18.960;2023-04-21T17:52:04;49752.38;;;-144.43;35.42
37486;BME280;23341;50.296;18.960;2023-04-21T17:57:11;49762.38;;;-144.43;35.78
37486;BME280;23341;50.296;18.960;2023-04-21T18:02:17;49730.38;;;-144.43;37.55
37486;BME280;23341;50.296;18.960;2023-04-21T18:07:22;49704.41;;;-144.43;38.02
37486;BME280;23341;50.296;18.960;2023-04-21T18:12:26;49686.41;;;-144.43;38.44
37486;BME280;23341;50.296;18.960;2023-04-21T18:17:32;49718.41;;;-144.43;38.27
37486;BME280;23341;50.296;18.960;2023-04-21T18:22:39;49684.41;;;-144.43;40.27
37486;BME280;23341;50.296;18.960;2023-04-21T18:27:44;49650.44;;;-144.43;40.33
37486;BME280;23341;50.296;18.960;2023-04-21T18:32:50;49654.44;;;-144.43;39.12
37486;BME280;23341;50.296;18.960;2023-04-21T18:37:55;49630.44;;;-144.43;40.26
37486;BME280;23341;50.296;18.960;2023-04-21T18:42:59;49626.44;;;-144.43;41.16
37486;BME280;23341;50.296;18.960;2023-04-21T18:48:05;49594.47;;;-144.43;42.71
37486;BME280;23341;50.296;18.960;2023-04-21T18:53:10;49584.47;;;-144.43;42.43
37486;BME280;23341;50.296;18.960;2023-04-21T18:58:14;49574.47;;;-144.43;41.92
37486;BME280;23341;50.296;18.960;2023-04-21T19:03:20;49586.47;;;-144.43;44.06
37486;BME280;23341;50.296;18.960;2023-04-21T19:08:28;49560.50;;;-144.43;43.65
37486;BME280;23341;50.296;18.960;2023-04-21T19:13:44;49564.50;;;-144.43;43.98
37486;BME280;23341;50.296;18.960;2023-04-21T19:18:51;49546.50;;;-144.43;43.57
37486;BME280;23341;50.296;18.960;2023-04-21T19:23:55;49564.50;;;-144.43;44.54
37486;BME280;23341;50.296;18.960;2023-04-21T19:29:00;49514.53;;;-144.43;45.65
37486;BME280;23341;50.296;18.960;2023-04-21T19:34:05;49534.50;;;-144.43;46.38
37486;BME280;23341;50.296;18.960;2023-04-21T19:39:10;49542.50;;;-144.43;47.68
37486;BME280;23341;50.296;18.960;2023-04-21T19:44:15;49474.56;;;-144.43;45.67
37486;BME280;23341;50.296;18.960;2023-04-21T19:49:21;49504.53;;;-144.43;47.03
37486;BME280;23341;50.296;18.960;2023-04-21T19:54:25;49476.53;;;-144.43;46.61
37486;BME280;23341;50.296;18.960;2023-04-21T19:59:30;49496.53;;;-144.43;48.45
37486;BME280;23341;50.296;18.960;2023-04-21T20:04:38;49486.53;;;-144.43;49.48
37486;BME280;23341;50.296;18.960;2023-04-21T20:09:42;49474.56;;;-144.43;49.68
37486;BME280;23341;50.296;18.960;2023-04-21T20:14:46;49460.56;;;-144.43;48.51
37486;BME280;23341;50.296;18.960;2023-04-21T20:19:52;49436.56;;;-144.43;49.10
37486;BME280;23341;50.296;18.960;2023-04-21T20:24:56;49440.56;;;-144.43;50.42
37486;BME280;23341;50.296;18.960;2023-04-21T20:30:01;49416.59;;;-144.43;50.98
37486;BME280;23341;50.296;18.960;2023-04-21T20:35:07;49430.56;;;-144.43;49.36
37486;BME280;23341;50.296;18.960;2023-04-21T20:40:14;49414.59;;;-144.43;46.47
37486;BME280;23341;50.296;18.960;2023-04-21T20:45:20;49428.59;;;-144.43;48.92
37486;BME280;23341;50.296;18.960;2023-04-21T20:50:26;49442.56;;;-144.43;45.98
37486;BME280;23341;50.296;18.960;2023-04-21T20:55:30;49398.59;;;-144.43;45.35
37486;BME280;23341;50.296;18.960;2023-04-21T21:00:34;49390.59;;;-144.43;44.78
37486;BME280;23341;50.296;18.960;2023-04-21T21:05:40;49398.59;;;-144.43;44.75
37486;BME280;23341;50.296;18.960;2023-04-21T21:10:45;49402.59;;;-144.43;44.83
37486;BME280;23341;50.296;18.960;2023-04-21T21:15:49;49358.63;;;-144.43;45.18
37486;BME280;23341;50.296;18.960;2023-04-21T21:20:55;49350.63;;;-144.43;45.23
37486;BME280;23341;50.296;18.960;2023-04-21T21:25:59;49386.59;;;-144.43;45.16
37486;BME280;23341;50.296;18.960;2023-04-21T21:31:04;49378.63;;;-144.43;46.07
37486;BME280;23341;50.296;18.960;2023-04-21T21:36:10;49378.63;;;-144.43;46.28
37486;BME280;23341;50.296;18.960;2023-04-21T21:41:14;49384.59;;;-144.43;47.13
37486;BME280;23341;50.296;18.960;2023-04-21T21:46:20;49350.63;;;-144.43;47.23
37486;BME280;23341;50.296;18.960;2023-04-21T21:51:27;49356.63;;;-144.43;47.69
37486;BME280;23341;50.296;18.960;2023-04-21T21:56:31;49330.66;;;-144.43;48.30
37486;BME280;23341;50.296;18.960;2023-04-21T22:01:36;49320.66;;;-144.43;48.75
37486;BME280;23341;50.296;18.960;2023-04-21T22:06:42;49334.66;;;-144.43;49.26
37486;BME280;23341;50.296;18.960;2023-04-21T22:11:47;49304.66;;;-144.43;49.88
37486;BME280;23341;50.296;18.960;2023-04-21T22:16:51;49318.66;;;-144.43;50.36
37486;BME280;23341;50.296;18.960;2023-04-21T22:21:57;49314.66;;;-144.43;50.69
37486;BME280;23341;50.296;18.960;2023-04-21T22:27:01;49320.66;;;-144.43;50.96
37486;BME280;23341;50.296;18.960;2023-04-21T22:32:06;49316.66;;;-144.43;51.26
37486;BME280;23341;50.296;18.960;2023-04-21T22:37:11;49306.66;;;-144.43;52.54
37486;BME280;23341;50.296;18.960;2023-04-21T22:42:16;49332.66;;;-144.43;52.58
37486;BME280;23341;50.296;18.960;2023-04-21T22:47:20;49294.66;;;-144.43;53.30
37486;BME280;23341;50.296;18.960;2023-04-21T22:52:26;49296.66;;;-144.43;53.58
37486;BME280;23341;50.296;18.960;2023-04-21T22:57:31;49278.69;;;-144.43;54.03
37486;BME280;23341;50.296;18.960;2023-04-21T23:02:35;49292.69;;;-144.43;54.42
37486;BME280;23341;50.296;18.960;2023-04-21T23:07:42;49290.69;;;-144.43;55.39
37486;BME280;23341;50.296;18.960;2023-04-21T23:12:46;49282.69;;;-144.43;55.92
37486;BME280;23341;50.296;18.960;2023-04-21T23:17:50;49314.66;;;-144.43;57.84
37486;BME280;23341;50.296;18.960;2023-04-21T23:22:56;49308.66;;;-144.43;57.46
37486;BME280;23341;50.296;18.960;2023-04-21T23:28:01;49288.69;;;-144.43;57.29
37486;BME280;23341;50.296;18.960;2023-04-21T23:33:05;49298.66;;;-144.43;60.26
37486;BME280;23341;50.296;18.960;2023-04-21T23:38:11;49274.69;;;-144.43;59.70
37486;BME280;23341;50.296;18.960;2023-04-21T23:43:15;49238.72;;;-144.43;60.58
37486;BME280;23341;50.296;18.960;2023-04-21T23:48:19;49280.69;;;-144.43;61.47
37486;BME280;23341;50.296;18.960;2023-04-21T23:53:25;49266.69;;;-144.43;62.02
37486;BME280;23341;50.296;18.960;2023-04-21T23:58:29;49278.69;;;-144.43;63.29
